Time;durP1;ratioP1;P1;durP2;ratioP2;P2;SDS_P1;SDS_P2;PMS_P1;PMS_P2;Temp;Humidity;BMP_temperature;BMP_pressure;BME280_temperature;BME280_humidity;BME280_pressure;Samples;Min_cycle;Max_cycle;Signal;HPM_P1;HPM_P2
2021/06/09 00:01:03;;;;;;;26.33;23.97;;;18.80;99.90;;;;;;5053614;28;20220;-49
2021/06/09 00:03:29;;;;;;;28.37;25.77;;;18.70;99.90;;;;;;5053965;28;20162;-48
2021/06/09 00:05:56;;;;;;;30.17;27.47;;;18.70;99.90;;;;;;5054857;28;20462;-48
2021/06/09 00:08:21;;;;;;;26.43;23.90;;;18.80;99.90;;;;;;5053899;28;20405;-49
2021/06/09 00:10:48;;;;;;;27.17;24.50;;;18.80;99.90;;;;;;5049614;28;20445;-49
2021/06/09 00:13:15;;;;;;;30.40;27.60;;;18.80;99.90;;;;;;5053153;28;20182;-49
2021/06/09 00:15:41;;;;;;;27.70;25.30;;;18.70;99.90;;;;;;5052941;28;20917;-52
2021/06/09 00:18:06;;;;;;;28.77;26.07;;;18.70;99.90;;;;;;5053424;28;20452;-50
2021/06/09 00:20:32;;;;;;;27.53;25.13;;;18.60;99.90;;;;;;5053215;28;20468;-49
2021/06/09 00:22:57;;;;;;;27.10;24.53;;;18.60;99.90;;;;;;5053147;28;20176;-51
2021/06/09 00:25:24;;;;;;;32.07;29.00;;;18.60;99.90;;;;;;5053371;28;20166;-50
2021/06/09 00:27:54;;;;;;;27.80;25.13;;;18.60;99.90;;;;;;5050863;28;20208;-49
2021/06/09 00:30:31;;;;;;;25.67;23.10;;;18.60;99.90;;;;;;5070454;28;20452;-49
2021/06/09 00:32:59;;;;;;;31.77;28.67;;;18.50;99.90;;;;;;5073390;28;20400;-51
2021/06/09 00:35:25;;;;;;;26.97;24.53;;;18.50;99.90;;;;;;5065669;28;20413;-48
2021/06/09 00:37:51;;;;;;;31.70;28.77;;;18.40;99.90;;;;;;5053159;28;20966;-49
2021/06/09 00:40:17;;;;;;;28.23;25.60;;;18.40;99.90;;;;;;5053609;28;20543;-48
2021/06/09 00:43:07;;;;;;;29.00;26.20;;;18.50;99.90;;;;;;5053163;28;20626;-49
2021/06/09 00:45:37;;;;;;;30.90;28.00;;;18.40;99.90;;;;;;5053728;28;20957;-49
2021/06/09 00:48:03;;;;;;;29.10;26.30;;;18.40;99.90;;;;;;5053381;28;20439;-50
2021/06/09 00:50:29;;;;;;;29.67;26.87;;;18.40;99.90;;;;;;5048992;28;20445;-52
2021/06/09 00:53:26;;;;;;;28.27;25.57;;;18.40;99.90;;;;;;5052753;28;20771;-53
2021/06/09 00:55:40;;;;;;;31.47;28.57;;;18.40;99.90;;;;;;5048837;28;20175;-51
2021/06/09 00:58:07;;;;;;;35.10;31.83;;;18.40;99.90;;;;;;5055463;28;20993;-53
2021/06/09 01:00:32;;;;;;;28.30;25.80;;;18.30;99.90;;;;;;5054338;28;20198;-48
2021/06/09 01:02:58;;;;;;;26.40;24.00;;;18.40;99.90;;;;;;5052894;28;20479;-54
2021/06/09 01:05:23;;;;;;;29.07;26.30;;;18.40;99.90;;;;;;5052922;28;20182;-51
2021/06/09 01:07:49;;;;;;;27.47;24.90;;;18.50;99.90;;;;;;5052663;28;20192;-51
2021/06/09 01:10:15;;;;;;;26.17;23.87;;;18.50;99.90;;;;;;5052873;28;20197;-50
2021/06/09 01:12:41;;;;;;;27.43;24.80;;;18.50;99.90;;;;;;5052750;28;20265;-48
2021/06/09 01:15:07;;;;;;;29.60;26.80;;;18.60;99.90;;;;;;5052968;28;20567;-52
2021/06/09 01:17:33;;;;;;;27.13;24.60;;;18.60;99.90;;;;;;5052115;28;20401;-51
2021/06/09 01:19:58;;;;;;;28.13;25.53;;;18.60;99.90;;;;;;5052623;28;20975;-52
2021/06/09 01:22:24;;;;;;;33.00;29.77;;;18.50;99.90;;;;;;5052412;28;20282;-50
2021/06/09 01:24:51;;;;;;;26.67;24.37;;;18.50;99.90;;;;;;5052490;28;20166;-50
2021/06/09 01:27:20;;;;;;;25.43;23.10;;;18.60;99.90;;;;;;5052736;28;20190;-50
2021/06/09 01:29:46;;;;;;;26.50;24.10;;;18.50;99.90;;;;;;5051931;28;20455;-51
2021/06/09 01:32:12;;;;;;;33.67;30.43;;;18.50;99.90;;;;;;5055915;28;20413;-51
2021/06/09 01:34:38;;;;;;;29.33;26.70;;;18.40;99.90;;;;;;5056530;28;20178;-52
2021/06/09 01:37:04;;;;;;;30.83;27.90;;;18.40;99.90;;;;;;5056684;28;20405;-52
2021/06/09 01:39:29;;;;;;;29.47;26.57;;;18.40;99.90;;;;;;5055687;28;20199;-52
2021/06/09 01:41:55;;;;;;;27.07;24.57;;;18.40;99.90;;;;;;5038531;28;20421;-50
2021/06/09 01:44:21;;;;;;;27.73;24.97;;;18.40;99.90;;;;;;5056285;28;20550;-50
2021/06/09 01:46:47;;;;;;;29.93;26.93;;;18.40;99.90;;;;;;5055797;28;20208;-51
2021/06/09 01:49:14;;;;;;;29.47;26.60;;;18.40;99.90;;;;;;5056115;28;20186;-50
2021/06/09 01:51:40;;;;;;;29.07;26.27;;;18.50;99.90;;;;;;5056133;28;20404;-50
2021/06/09 01:54:07;;;;;;;28.50;25.87;;;18.50;99.90;;;;;;5056066;28;20413;-51
2021/06/09 01:56:33;;;;;;;28.73;25.93;;;18.50;99.90;;;;;;5054935;28;20197;-50
2021/06/09 01:59:12;;;;;;;31.03;28.07;;;18.50;99.90;;;;;;5056301;28;20412;-50
2021/06/09 02:01:38;;;;;;;30.93;28.03;;;18.60;99.90;;;;;;5051990;28;20489;-50
2021/06/09 02:04:04;;;;;;;31.10;28.20;;;18.60;99.90;;;;;;5056153;28;20404;-50
2021/06/09 02:06:30;;;;;;;35.80;32.20;;;18.50;99.90;;;;;;5055829;28;20408;-50
2021/06/09 02:08:55;;;;;;;35.07;31.53;;;18.40;99.90;;;;;;5055755;28;20652;-53
2021/06/09 02:11:21;;;;;;;29.30;26.60;;;18.40;99.90;;;;;;5055595;28;20567;-53
2021/06/09 02:13:47;;;;;;;29.43;26.70;;;18.40;99.90;;;;;;5055460;28;20185;-50
2021/06/09 02:16:13;;;;;;;27.27;24.77;;;18.50;99.90;;;;;;5055720;28;20178;-52
2021/06/09 02:18:39;;;;;;;26.67;24.17;;;18.60;99.90;;;;;;5055868;28;20178;-51
2021/06/09 02:21:05;;;;;;;26.57;23.93;;;18.70;99.90;;;;;;5055514;28;20248;-51
2021/06/09 02:23:37;;;;;;;26.33;23.93;;;18.70;99.90;;;;;;5055417;28;20409;-50
2021/06/09 02:26:03;;;;;;;28.70;26.00;;;18.80;99.90;;;;;;5055490;28;20543;-52
2021/06/09 02:28:33;;;;;;;26.73;24.40;;;18.80;99.90;;;;;;5055801;28;20417;-50
2021/06/09 02:30:59;;;;;;;25.57;23.30;;;18.80;99.90;;;;;;5092898;22;20491;-54
2021/06/09 02:33:26;;;;;;;25.87;23.67;;;18.70;99.90;;;;;;5075644;28;20415;-52
2021/06/09 02:35:54;;;;;;;23.27;21.27;;;18.70;99.90;;;;;;5074702;28;20381;-49
2021/06/09 02:38:21;;;;;;;27.73;25.17;;;18.70;99.90;;;;;;5074705;28;20891;-51
2021/06/09 02:40:51;;;;;;;22.50;20.60;;;18.80;99.90;;;;;;5070918;28;20452;-49
2021/06/09 02:43:17;;;;;;;24.37;22.07;;;18.80;99.90;;;;;;5075323;28;20491;-48
2021/06/09 02:45:52;;;;;;;25.50;23.20;;;18.80;99.90;;;;;;5075147;28;21000;-48
2021/06/09 02:48:21;;;;;;;25.00;22.90;;;18.90;99.90;;;;;;5075838;28;20828;-50
2021/06/09 02:50:47;;;;;;;26.43;24.03;;;18.80;99.90;;;;;;5074577;28;20425;-52
2021/06/09 02:53:31;;;;;;;30.37;27.57;;;18.80;99.90;;;;;;5074749;28;20419;-51
2021/06/09 02:56:15;;;;;;;26.30;23.90;;;18.70;99.90;;;;;;5074411;28;20178;-53
2021/06/09 02:58:58;;;;;;;27.60;24.90;;;18.70;99.90;;;;;;5075051;28;20397;-51
2021/06/09 03:01:41;;;;;;;24.00;21.90;;;18.70;99.90;;;;;;5074443;28;20947;-49
2021/06/09 03:04:17;;;;;;;28.80;26.27;;;18.60;99.90;;;;;;5074834;28;20755;-51
2021/06/09 03:06:58;;;;;;;25.23;23.03;;;18.60;99.90;;;;;;5075119;28;20408;-49
2021/06/09 03:09:46;;;;;;;26.93;24.53;;;18.60;99.90;;;;;;5074532;28;20388;-50
2021/06/09 03:12:34;;;;;;;31.10;28.40;;;18.60;99.90;;;;;;5074549;28;20400;-48
2021/06/09 03:15:12;;;;;;;28.20;25.13;;;18.60;99.90;;;;;;5074762;28;20860;-51
2021/06/09 03:17:46;;;;;;;27.93;25.43;;;18.50;99.90;;;;;;5074334;28;20384;-49
2021/06/09 03:20:21;;;;;;;26.93;24.33;;;18.60;99.90;;;;;;5070348;28;20466;-49
2021/06/09 03:23:09;;;;;;;32.93;29.70;;;18.70;99.90;;;;;;5067596;28;20449;-48
2021/06/09 03:25:47;;;;;;;28.23;25.47;;;18.60;99.90;;;;;;5074517;28;20404;-51
2021/06/09 03:28:29;;;;;;;32.70;29.50;;;18.60;99.90;;;;;;5074519;28;20388;-49
2021/06/09 03:31:02;;;;;;;29.50;26.83;;;18.60;99.90;;;;;;5073398;28;20504;-51
2021/06/09 03:33:34;;;;;;;30.13;27.53;;;18.50;99.90;;;;;;5074391;28;20765;-54
2021/06/09 03:36:09;;;;;;;28.67;25.97;;;18.50;99.90;;;;;;5074408;28;20396;-51
2021/06/09 03:38:43;;;;;;;28.87;26.17;;;18.40;99.90;;;;;;5073778;28;20395;-51
2021/06/09 03:41:12;;;;;;;35.67;32.17;;;18.40;99.90;;;;;;5074113;28;20499;-49
2021/06/09 03:43:42;;;;;;;27.93;25.27;;;18.20;99.90;;;;;;5074434;28;20401;-52
2021/06/09 03:46:09;;;;;;;27.90;25.30;;;18.30;99.90;;;;;;5074015;28;20478;-49
2021/06/09 03:48:39;;;;;;;28.13;25.73;;;18.30;99.90;;;;;;5073906;28;20396;-52
2021/06/09 03:51:07;;;;;;;28.07;25.43;;;18.40;99.90;;;;;;5072043;28;20528;-48
2021/06/09 03:53:33;;;;;;;34.00;30.57;;;18.50;99.90;;;;;;5073209;28;20416;-50
2021/06/09 03:56:03;;;;;;;31.80;28.43;;;18.40;99.90;;;;;;5073069;28;20924;-51
2021/06/09 03:58:30;;;;;;;27.13;24.63;;;18.50;99.90;;;;;;5073721;28;20897;-46
2021/06/09 04:00:56;;;;;;;28.40;25.73;;;18.60;99.90;;;;;;5069312;28;20463;-47
2021/06/09 04:03:24;;;;;;;27.10;24.70;;;18.70;99.90;;;;;;5073460;28;20527;-47
2021/06/09 04:05:52;;;;;;;25.43;23.20;;;18.70;99.90;;;;;;5073505;28;20410;-50
2021/06/09 04:08:19;;;;;;;31.17;28.47;;;18.70;99.90;;;;;;5073197;28;20752;-48
2021/06/09 04:10:47;;;;;;;24.87;22.60;;;18.70;99.90;;;;;;5073779;28;20503;-52
2021/06/09 04:13:14;;;;;;;25.50;23.30;;;18.70;99.90;;;;;;5073456;28;20404;-47
2021/06/09 04:15:41;;;;;;;30.33;27.47;;;18.70;99.90;;;;;;5073347;28;20464;-49
2021/06/09 04:18:08;;;;;;;22.80;20.70;;;18.70;99.90;;;;;;5073567;28;20404;-52
2021/06/09 04:20:36;;;;;;;24.47;22.37;;;18.80;99.90;;;;;;5073313;28;20444;-54
2021/06/09 04:23:02;;;;;;;25.80;23.50;;;18.80;99.90;;;;;;5073119;28;20444;-52
2021/06/09 04:25:27;;;;;;;27.57;25.00;;;18.90;99.90;;;;;;5072972;28;20415;-51
2021/06/09 04:27:54;;;;;;;23.10;21.03;;;18.90;99.90;;;;;;5073224;28;20400;-48
2021/06/09 04:30:21;;;;;;;22.93;21.03;;;19.00;99.90;;;;;;5072280;28;20210;-50
2021/06/09 04:33:02;;;;;;;22.17;19.93;;;19.10;99.90;;;;;;5073408;28;20411;-50
2021/06/09 04:35:34;;;;;;;24.93;22.73;;;19.10;99.90;;;;;;5073316;28;20380;-52
2021/06/09 04:38:00;;;;;;;22.37;20.40;;;19.10;99.90;;;;;;5073276;28;20388;-49
2021/06/09 04:40:27;;;;;;;22.03;20.20;;;19.10;99.90;;;;;;5068806;28;20454;-52
2021/06/09 04:42:55;;;;;;;26.33;23.93;;;19.10;99.90;;;;;;5073072;28;20249;-52
2021/06/09 04:45:23;;;;;;;25.00;22.80;;;19.10;99.90;;;;;;5073122;28;20392;-50
2021/06/09 04:47:49;;;;;;;21.97;19.90;;;19.10;99.90;;;;;;5073051;28;20400;-50
2021/06/09 04:50:20;;;;;;;22.50;20.70;;;19.10;99.90;;;;;;5072896;28;20527;-52
2021/06/09 04:52:46;;;;;;;24.77;22.67;;;19.10;99.90;;;;;;5073085;28;20942;-51
2021/06/09 04:55:12;;;;;;;24.30;22.20;;;19.20;99.90;;;;;;5072381;28;20404;-49
2021/06/09 04:57:37;;;;;;;24.13;21.90;;;19.20;99.90;;;;;;5072840;28;20411;-49
2021/06/09 05:00:13;;;;;;;25.27;23.07;;;19.30;99.90;;;;;;5071447;28;20448;-51
2021/06/09 05:02:39;;;;;;;23.17;20.90;;;19.40;99.90;;;;;;5076275;28;20165;-51
2021/06/09 05:05:06;;;;;;;21.70;19.87;;;19.50;99.90;;;;;;5078940;28;20431;-49
2021/06/09 05:07:31;;;;;;;23.27;21.10;;;19.60;99.90;;;;;;5061320;28;20407;-51
2021/06/09 05:09:57;;;;;;;24.60;22.50;;;19.60;99.90;;;;;;5078936;28;20792;-53
2021/06/09 05:12:31;;;;;;;22.10;20.20;;;19.60;99.90;;;;;;5079267;28;20169;-52
2021/06/09 05:15:08;;;;;;;22.70;20.80;;;19.70;99.90;;;;;;5079249;28;20874;-49
2021/06/09 05:17:39;;;;;;;23.13;21.13;;;19.70;99.90;;;;;;5078367;28;20411;-52
2021/06/09 05:20:07;;;;;;;24.57;22.33;;;19.80;99.90;;;;;;5075264;28;20458;-49
2021/06/09 05:22:51;;;;;;;27.23;24.80;;;19.90;99.90;;;;;;5079147;28;20420;-49
2021/06/09 05:25:18;;;;;;;23.83;21.70;;;19.90;99.90;;;;;;5079089;28;20449;-47
2021/06/09 05:27:46;;;;;;;22.00;20.07;;;20.00;99.90;;;;;;5079261;28;20486;-49
2021/06/09 05:30:15;;;;;;;24.50;22.50;;;20.00;99.90;;;;;;5078760;28;20870;-47
2021/06/09 05:32:41;;;;;;;24.90;22.70;;;20.00;99.90;;;;;;5078772;28;20416;-47
2021/06/09 05:35:09;;;;;;;23.03;21.00;;;20.00;99.90;;;;;;5078706;28;20415;-50
2021/06/09 05:37:35;;;;;;;25.37;23.30;;;20.00;99.90;;;;;;5078863;28;20408;-50
2021/06/09 05:40:07;;;;;;;25.20;23.00;;;19.80;99.90;;;;;;5079059;28;20471;-51
2021/06/09 05:42:33;;;;;;;23.10;21.00;;;19.70;99.90;;;;;;5079264;28;20380;-54
2021/06/09 05:44:59;;;;;;;22.53;20.63;;;19.80;99.90;;;;;;5078969;28;20942;-51
2021/06/09 05:47:24;;;;;;;24.67;22.57;;;20.00;99.90;;;;;;5078847;28;20395;-51
2021/06/09 05:50:17;;;;;;;21.77;19.97;;;20.20;99.90;;;;;;5079097;28;20186;-49
2021/06/09 05:52:44;;;;;;;21.90;20.10;;;20.40;99.90;;;;;;5079016;28;20186;-52
2021/06/09 05:55:18;;;;;;;24.57;22.47;;;20.50;99.90;;;;;;5078670;28;20458;-50
2021/06/09 05:57:44;;;;;;;21.97;20.17;;;20.60;99.90;;;;;;5077912;28;20428;-51
2021/06/09 06:00:11;;;;;;;23.60;21.50;;;20.60;99.90;;;;;;5073726;28;20478;-47
2021/06/09 06:02:38;;;;;;;23.57;21.37;;;20.70;99.90;;;;;;5070298;28;20405;-53
2021/06/09 06:05:06;;;;;;;28.70;26.10;;;20.80;99.90;;;;;;5078370;28;20438;-48
2021/06/09 06:07:33;;;;;;;26.60;24.00;;;20.40;99.90;;;;;;5078386;28;20427;-52
2021/06/09 06:09:59;;;;;;;26.37;24.00;;;20.40;99.90;;;;;;5078911;28;20786;-49
2021/06/09 06:12:28;;;;;;;28.37;25.90;;;20.50;99.90;;;;;;5078659;28;20438;-53
2021/06/09 06:14:54;;;;;;;25.80;23.10;;;20.50;99.90;;;;;;5075305;28;20397;-52
2021/06/09 06:17:20;;;;;;;28.70;26.03;;;20.60;99.90;;;;;;5075376;28;20400;-51
2021/06/09 06:19:49;;;;;;;26.83;24.47;;;20.50;99.90;;;;;;5075398;28;20500;-52
2021/06/09 06:22:15;;;;;;;27.80;25.10;;;20.50;99.90;;;;;;5075505;28;20776;-49
2021/06/09 06:24:44;;;;;;;27.57;24.87;;;20.50;99.90;;;;;;5074100;28;20405;-50
2021/06/09 06:27:12;;;;;;;27.90;25.30;;;20.70;99.90;;;;;;5074875;28;20411;-54
2021/06/09 06:29:38;;;;;;;25.27;22.83;;;20.50;99.90;;;;;;5075083;28;20455;-53
2021/06/09 06:32:08;;;;;;;24.50;22.10;;;20.50;99.90;;;;;;5075229;28;20872;-52
2021/06/09 06:34:39;;;;;;;25.43;22.83;;;20.60;99.90;;;;;;5075787;28;20410;-53
2021/06/09 06:37:06;;;;;;;28.90;24.60;;;20.50;99.90;;;;;;5075503;28;20923;-48
2021/06/09 06:39:33;;;;;;;26.23;23.83;;;20.60;99.90;;;;;;5072034;28;20729;-54
2021/06/09 06:41:59;;;;;;;25.23;22.83;;;20.70;99.90;;;;;;5054884;28;20787;-53
2021/06/09 06:44:25;;;;;;;24.37;21.97;;;20.60;99.90;;;;;;5074968;28;20400;-50
2021/06/09 06:46:51;;;;;;;22.67;20.47;;;20.80;99.90;;;;;;5062169;28;21036;-51
2021/06/09 06:49:18;;;;;;;22.97;20.77;;;20.90;99.90;;;;;;5054746;28;20185;-50
2021/06/09 06:51:45;;;;;;;25.43;23.33;;;20.90;99.90;;;;;;5055209;28;20393;-54
2021/06/09 06:54:12;;;;;;;21.17;19.37;;;20.90;99.90;;;;;;5054660;28;20445;-51
2021/06/09 06:56:39;;;;;;;22.40;20.40;;;21.00;99.90;;;;;;5062306;28;20489;-55
2021/06/09 06:59:04;;;;;;;20.00;17.90;;;21.00;99.90;;;;;;5074740;28;20793;-54
2021/06/09 07:01:34;;;;;;;21.70;19.77;;;21.20;99.90;;;;;;5074479;28;20466;-52
2021/06/09 07:04:01;;;;;;;20.87;19.03;;;21.10;99.90;;;;;;5070604;28;20166;-55
2021/06/09 07:06:28;;;;;;;21.67;19.77;;;21.10;99.90;;;;;;5073748;28;20412;-52
2021/06/09 07:08:54;;;;;;;21.73;19.93;;;21.10;99.90;;;;;;5074699;28;20404;-52
2021/06/09 07:11:21;;;;;;;20.20;18.30;;;21.20;99.90;;;;;;5074542;28;20489;-52
2021/06/09 07:13:48;;;;;;;22.87;20.87;;;20.90;99.90;;;;;;5074450;28;20401;-51
2021/06/09 07:16:15;;;;;;;22.80;20.80;;;20.80;99.90;;;;;;5074739;28;20404;-52
2021/06/09 07:18:45;;;;;;;22.50;20.50;;;20.90;99.90;;;;;;5073790;28;20458;-54
2021/06/09 07:21:14;;;;;;;21.97;19.93;;;20.90;99.90;;;;;;5073528;28;20452;-52
2021/06/09 07:23:40;;;;;;;22.57;20.57;;;21.20;99.90;;;;;;5074557;28;20404;-51
2021/06/09 07:26:07;;;;;;;21.03;19.23;;;21.30;99.90;;;;;;5055205;28;20409;-51
2021/06/09 07:28:34;;;;;;;21.10;19.10;;;21.30;99.90;;;;;;5074257;28;20397;-51
2021/06/09 07:31:00;;;;;;;21.20;19.30;;;21.40;99.90;;;;;;5074297;28;20436;-49
2021/06/09 07:33:26;;;;;;;23.87;21.77;;;21.50;99.90;;;;;;5074252;28;20793;-53
2021/06/09 07:35:55;;;;;;;22.53;20.30;;;21.60;99.90;;;;;;5074552;28;20436;-51
2021/06/09 07:38:25;;;;;;;19.57;17.87;;;21.80;99.90;;;;;;5074218;28;20674;-49
2021/06/09 07:40:59;;;;;;;21.13;19.33;;;21.60;99.90;;;;;;5073741;28;20444;-53
2021/06/09 07:43:28;;;;;;;21.13;19.33;;;21.60;99.90;;;;;;5074400;28;20384;-55
2021/06/09 07:45:56;;;;;;;23.10;20.90;;;21.60;99.90;;;;;;5074104;28;20897;-53
2021/06/09 07:48:25;;;;;;;22.03;20.23;;;21.70;99.90;;;;;;5073791;28;20412;-54
2021/06/09 07:51:04;;;;;;;23.57;21.50;;;22.00;99.90;;;;;;5073841;28;20419;-55
2021/06/09 07:53:31;;;;;;;22.37;20.27;;;22.00;99.90;;;;;;5074337;28;20459;-55
2021/06/09 07:55:57;;;;;;;25.43;23.00;;;22.20;99.90;;;;;;5073511;28;20408;-55
2021/06/09 07:58:28;;;;;;;23.83;21.63;;;22.50;99.90;;;;;;5074202;28;20459;-53
2021/06/09 08:00:56;;;;;;;26.67;24.20;;;22.60;99.90;;;;;;5073793;28;20542;-55
2021/06/09 08:03:26;;;;;;;25.63;23.33;;;22.40;99.90;;;;;;5073585;28;20404;-55
2021/06/09 08:05:55;;;;;;;28.87;26.10;;;22.20;99.90;;;;;;5074295;28;20392;-55
2021/06/09 08:08:21;;;;;;;23.10;21.00;;;22.30;99.90;;;;;;5074084;28;20411;-54
2021/06/09 08:10:47;;;;;;;26.63;24.20;;;22.60;99.90;;;;;;5073482;28;20412;-53
2021/06/09 08:13:13;;;;;;;30.47;27.63;;;22.70;99.90;;;;;;5073683;28;20654;-52
2021/06/09 08:15:40;;;;;;;30.97;28.03;;;22.50;99.90;;;;;;5074131;28;20244;-55
2021/06/09 08:18:06;;;;;;;29.63;26.93;;;22.40;99.90;;;;;;5073590;28;20165;-54
2021/06/09 08:20:32;;;;;;;27.40;24.97;;;22.30;99.90;;;;;;5073281;28;20972;-53
2021/06/09 08:22:59;;;;;;;26.40;24.00;;;22.40;99.90;;;;;;5073680;28;20393;-53
2021/06/09 08:25:24;;;;;;;28.87;26.23;;;22.70;99.90;;;;;;5073368;28;20445;-50
2021/06/09 08:27:52;;;;;;;26.47;24.10;;;22.40;99.90;;;;;;5073511;28;20413;-52
2021/06/09 08:30:19;;;;;;;27.07;24.50;;;22.40;99.90;;;;;;5093720;22;20214;-51
2021/06/09 08:32:45;;;;;;;27.07;24.67;;;22.30;99.90;;;;;;5053069;28;20408;-50
2021/06/09 08:35:11;;;;;;;25.97;23.60;;;22.40;99.90;;;;;;5052334;28;20484;-49
2021/06/09 08:37:37;;;;;;;30.73;27.87;;;22.40;99.90;;;;;;5052935;28;20390;-50
2021/06/09 08:40:09;;;;;;;27.90;25.33;;;22.50;99.90;;;;;;5053109;28;21016;-50
2021/06/09 08:42:36;;;;;;;23.70;21.57;;;22.60;99.90;;;;;;5053098;28;20401;-50
2021/06/09 08:45:07;;;;;;;27.67;24.93;;;22.60;99.90;;;;;;5053066;28;20397;-51
2021/06/09 08:47:34;;;;;;;25.50;22.90;;;22.70;99.90;;;;;;5053162;28;20394;-50
2021/06/09 08:50:00;;;;;;;27.23;24.80;;;22.80;99.90;;;;;;5054073;28;20425;-59
2021/06/09 08:52:28;;;;;;;25.80;23.50;;;23.00;99.90;;;;;;5053293;28;20412;-60
2021/06/09 08:54:54;;;;;;;27.07;24.40;;;23.10;99.90;;;;;;5053241;28;20960;-58
2021/06/09 08:57:20;;;;;;;26.40;24.10;;;23.20;99.90;;;;;;5053130;28;20413;-60
2021/06/09 08:59:46;;;;;;;26.73;24.20;;;23.30;99.90;;;;;;5053060;28;20496;-59
2021/06/09 09:02:13;;;;;;;30.40;27.70;;;23.50;99.90;;;;;;5053011;28;20488;-60
2021/06/09 09:04:40;;;;;;;26.47;24.27;;;23.40;99.90;;;;;;5052699;28;20683;-59
2021/06/09 09:07:10;;;;;;;26.93;24.50;;;23.60;99.90;;;;;;5053251;28;20401;-60
2021/06/09 09:09:37;;;;;;;27.43;25.03;;;23.70;99.90;;;;;;5052732;28;20397;-60
2021/06/09 09:12:07;;;;;;;27.70;25.33;;;23.50;99.90;;;;;;5052780;28;20429;-60
2021/06/09 09:14:32;;;;;;;26.63;24.13;;;23.60;99.90;;;;;;5052906;28;20409;-59
2021/06/09 09:17:08;;;;;;;27.47;24.97;;;23.80;99.90;;;;;;5053401;28;20405;-61
2021/06/09 09:19:40;;;;;;;29.20;26.70;;;23.90;99.90;;;;;;5052172;28;20171;-60
2021/06/09 09:22:07;;;;;;;28.40;25.70;;;23.80;99.90;;;;;;5053275;28;20397;-60
2021/06/09 09:24:43;;;;;;;25.00;22.83;;;23.90;99.90;;;;;;5052935;28;20447;-61
2021/06/09 09:27:11;;;;;;;26.10;23.80;;;24.20;99.90;;;;;;5052727;28;20393;-59
2021/06/09 09:29:37;;;;;;;22.50;20.60;;;24.40;99.90;;;;;;5055591;28;20405;-61
2021/06/09 09:32:07;;;;;;;26.00;23.47;;;24.30;99.90;;;;;;5052577;28;20439;-59
2021/06/09 09:34:44;;;;;;;27.10;24.83;;;24.00;99.90;;;;;;5052559;28;20600;-61
2021/06/09 09:37:21;;;;;;;25.60;23.30;;;24.00;99.90;;;;;;5043490;28;20769;-59
2021/06/09 09:39:50;;;;;;;25.00;22.63;;;24.20;99.90;;;;;;5052458;28;20401;-59
2021/06/09 09:42:34;;;;;;;24.87;22.60;;;24.20;99.90;;;;;;5052814;28;20779;-56
2021/06/09 09:45:34;;;;;;;22.97;20.97;;;24.20;99.90;;;;;;5053807;28;20374;-59
2021/06/09 09:48:18;;;;;;;25.60;23.40;;;24.30;99.90;;;;;;5002588;28;20424;-57
2021/06/09 09:50:51;;;;;;;24.73;22.53;;;24.20;99.90;;;;;;5058730;28;20429;-57
2021/06/09 09:53:29;;;;;;;25.57;23.30;;;24.40;99.90;;;;;;5056528;28;20404;-60
2021/06/09 09:56:07;;;;;;;21.67;19.83;;;24.60;99.90;;;;;;5055470;28;20412;-60
2021/06/09 09:58:36;;;;;;;21.50;19.60;;;24.60;99.90;;;;;;5056465;28;20485;-58
2021/06/09 10:01:17;;;;;;;23.80;21.57;;;24.60;99.90;;;;;;5055692;28;20467;-61
2021/06/09 10:03:46;;;;;;;25.00;22.93;;;24.80;99.90;;;;;;5056177;28;20394;-60
2021/06/09 10:06:25;;;;;;;24.37;22.27;;;24.60;99.90;;;;;;5055988;28;20464;-59
2021/06/09 10:08:52;;;;;;;24.00;22.00;;;24.50;99.90;;;;;;5055897;28;20913;-60
2021/06/09 10:11:20;;;;;;;22.57;20.67;;;24.50;99.90;;;;;;5055868;28;20420;-62
2021/06/09 10:13:46;;;;;;;24.07;22.17;;;24.80;99.90;;;;;;5056029;28;20409;-61
2021/06/09 10:16:30;;;;;;;25.93;23.47;;;24.90;99.90;;;;;;5055521;28;20428;-60
2021/06/09 10:19:04;;;;;;;25.87;23.70;;;25.00;99.90;;;;;;5055900;28;20435;-59
2021/06/09 10:21:30;;;;;;;22.40;20.60;;;25.10;99.90;;;;;;5055803;28;20445;-61
2021/06/09 10:24:01;;;;;;;28.57;25.77;;;25.60;99.90;;;;;;5055478;28;20416;-60
2021/06/09 10:26:28;;;;;;;26.97;24.70;;;25.30;99.90;;;;;;5055259;28;20984;-60
2021/06/09 10:28:59;;;;;;;29.30;26.57;;;25.50;99.90;;;;;;5055699;28;20751;-61
2021/06/09 10:31:37;;;;;;;25.53;23.43;;;25.00;99.90;;;;;;5055221;28;20437;-61
2021/06/09 10:34:04;;;;;;;21.90;19.93;;;25.00;99.90;;;;;;5055822;28;20393;-61
2021/06/09 10:36:38;;;;;;;26.40;24.30;;;25.20;99.90;;;;;;5055629;28;20405;-61
2021/06/09 10:39:04;;;;;;;23.50;21.40;;;25.50;99.90;;;;;;5055862;28;20389;-61
2021/06/09 10:41:30;;;;;;;23.60;21.50;;;25.70;99.90;;;;;;5055175;28;20478;-61
2021/06/09 10:43:57;;;;;;;25.50;23.53;;;26.00;99.90;;;;;;5055855;28;20413;-60
2021/06/09 10:46:26;;;;;;;24.83;22.77;;;25.70;99.90;;;;;;5055426;28;20830;-61
2021/06/09 10:49:01;;;;;;;24.73;22.53;;;25.70;99.90;;;;;;5055758;28;20405;-61
2021/06/09 10:51:27;;;;;;;23.10;21.13;;;25.90;99.90;;;;;;5055195;28;20456;-61
2021/06/09 10:53:53;;;;;;;22.20;20.33;;;25.60;99.90;;;;;;5055749;28;20432;-61
2021/06/09 10:56:22;;;;;;;20.27;18.57;;;25.60;99.90;;;;;;5055038;28;20956;-61
2021/06/09 10:58:48;;;;;;;21.23;19.40;;;25.70;99.90;;;;;;5055415;28;20464;-61
2021/06/09 11:01:15;;;;;;;22.87;20.77;;;25.90;99.90;;;;;;5054187;28;20457;-61
2021/06/09 11:03:46;;;;;;;22.70;20.50;;;26.00;99.90;;;;;;5055526;28;20628;-61
2021/06/09 11:06:12;;;;;;;21.53;19.77;;;26.20;99.90;;;;;;5055149;28;20374;-61
2021/06/09 11:08:39;;;;;;;19.37;17.57;;;26.80;99.90;;;;;;5054858;28;20429;-61
2021/06/09 11:11:20;;;;;;;17.27;15.77;;;27.30;99.90;;;;;;5054525;28;20421;-61
2021/06/09 11:13:48;;;;;;;17.60;16.10;;;27.40;99.90;;;;;;5055117;28;20886;-60
2021/06/09 11:16:16;;;;;;;17.33;15.93;;;27.30;99.90;;;;;;5054846;28;20401;-61
2021/06/09 11:18:45;;;;;;;16.97;15.57;;;27.40;99.90;;;;;;5054938;28;20493;-61
2021/06/09 11:21:15;;;;;;;18.10;16.37;;;27.50;99.90;;;;;;5036616;28;20452;-61
2021/06/09 11:23:41;;;;;;;17.10;15.70;;;27.90;99.90;;;;;;5057581;28;20431;-61
2021/06/09 11:26:25;;;;;;;14.20;13.10;;;28.10;99.90;;;;;;5054370;28;20408;-59
2021/06/09 11:28:50;;;;;;;16.53;15.33;;;27.80;99.10;;;;;;5054737;28;20385;-60
2021/06/09 11:31:33;;;;;;;15.63;14.00;;;27.40;99.90;;;;;;5054185;28;20456;-59
2021/06/09 11:34:03;;;;;;;15.50;14.10;;;28.10;99.90;;;;;;5054511;28;20288;-60
2021/06/09 11:36:31;;;;;;;13.37;12.17;;;29.30;97.20;;;;;;5054677;28;20401;-61
2021/06/09 11:38:59;;;;;;;13.53;12.53;;;31.10;94.80;;;;;;5054885;28;20492;-59
2021/06/09 11:41:35;;;;;;;11.33;10.50;;;32.20;92.40;;;;;;5054063;28;20822;-60
2021/06/09 11:44:01;;;;;;;11.97;10.97;;;33.00;89.70;;;;;;5055066;28;20543;-61
2021/06/09 11:46:35;;;;;;;11.43;10.43;;;34.40;86.50;;;;;;5054079;28;20433;-61
2021/06/09 11:49:08;;;;;;;11.80;10.80;;;34.40;79.90;;;;;;5054336;28;20147;-59
2021/06/09 11:51:40;;;;;;;10.97;10.17;;;33.70;81.30;;;;;;5054342;28;20421;-60
2021/06/09 11:54:17;;;;;;;10.53;9.63;;;33.10;82.80;;;;;;5054815;28;20824;-61
2021/06/09 11:56:46;;;;;;;11.77;10.87;;;33.60;83.10;;;;;;5054117;28;20401;-60
2021/06/09 11:59:23;;;;;;;9.60;8.90;;;33.50;81.10;;;;;;5054022;28;20416;-58
2021/06/09 12:01:50;;;;;;;10.30;9.60;;;33.20;80.80;;;;;;5053823;28;20530;-59
2021/06/09 12:04:30;;;;;;;12.17;11.30;;;33.60;80.00;;;;;;5054228;28;20406;-58
2021/06/09 12:07:07;;;;;;;12.00;11.07;;;34.50;77.30;;;;;;5053990;28;20511;-58
2021/06/09 12:09:34;;;;;;;13.60;12.40;;;35.00;75.80;;;;;;5054435;28;20893;-60
2021/06/09 12:12:03;;;;;;;14.20;13.10;;;33.40;82.30;;;;;;5053295;28;20417;-59
2021/06/09 12:14:38;;;;;;;13.43;12.30;;;31.50;89.30;;;;;;5053929;28;20925;-57
2021/06/09 12:17:25;;;;;;;14.43;13.40;;;30.40;92.50;;;;;;5053915;28;20438;-57
2021/06/09 12:19:57;;;;;;;14.27;13.13;;;29.20;94.90;;;;;;5053846;28;20749;-59
2021/06/09 12:22:25;;;;;;;14.20;13.13;;;29.80;96.90;;;;;;5053775;28;20412;-60
2021/06/09 12:25:19;;;;;;;14.07;12.97;;;31.70;92.60;;;;;;5053804;28;20818;-57
2021/06/09 12:28:10;;;;;;;14.53;13.33;;;32.50;91.80;;;;;;5032825;28;20577;-59
2021/06/09 12:30:39;;;;;;;15.50;14.00;;;32.80;90.30;;;;;;5028344;28;20471;-60
2021/06/09 12:33:05;;;;;;;15.80;14.60;;;32.20;90.40;;;;;;5033723;28;20975;-60
2021/06/09 12:35:31;;;;;;;14.27;13.13;;;31.00;91.80;;;;;;5033289;28;20445;-59
2021/06/09 12:38:02;;;;;;;15.30;14.20;;;30.30;93.00;;;;;;5015867;28;20442;-60
2021/06/09 12:40:31;;;;;;;13.70;12.37;;;29.80;93.70;;;;;;5033225;28;20195;-58